Main page
METAR-TAF:

METAR-TAF

Airports :

Katterbach Kaserne

Ansbach, Germany

latitude: 49-19N, longitude: 010-38E, elevation: 467 m

Current weather observation

The report was made 28 minutes ago, at 02:56 UTC
Wind 5 kt from the West/Southwest
Temperature 17°C
Humidity 72%
Pressure 1020 hPa
Visibility 10 km or more
Few clouds at a height of 7000 ft

METAR: ETEB 200256Z AUTO 25005KT 9999 FEW070 17/12 A3012 RMK AO2 SLP190 T01730116 57003 $

Time: 05:24 (03:24 UTC)

Forecast

The report was made 6 hours and 16 minutes ago, at 21:08 UTC
Forecast valid from 19 at 21 UTC to 21 at 03 UTC
Wind 6 kt from variable directions
Visibility 10 km or more
Few clouds at a height of 7000 ft
Becoming
from 20 at 07 UTC to 20 at 08 UTC
Wind 9 kt from the West
Visibility 10 km or more
Few clouds at a height of 7000 ft

TAF: ETEB 192108Z 1921/2103 VRB06KT 9999 FEW070 QNH3011INS BECMG 2007/2008 27009KT 9999 FEW070 QNH3007INS TX29/2014Z TN15/2004Z

Weather observations and forecasts of more than 4000 airports (METAR and TAF reports).

The available stations are represented by yellow and red dots on the map.

Hover mouse over dot to see the name of the station.

Then click to see weather observations and forecasts.

To change the map : click on the green buttons with a black cross to zoom in, on the green button with a dash to zoom out, or on the green arrows for adjacent maps.


METAR-TAF: